createdAt,value
2022-11-28T00:01:03.148Z,58304.50
2022-11-28T00:03:29.577Z,58677.13
2022-11-28T00:05:56.381Z,58271.41
2022-11-28T00:08:22.921Z,58492.88
2022-11-28T00:10:49.331Z,58269.31
2022-11-28T00:13:15.719Z,58302.44
2022-11-28T00:15:42.146Z,58248.63
2022-11-28T00:18:08.596Z,58238.28
2022-11-28T00:20:34.982Z,58292.09
2022-11-28T00:23:01.354Z,58258.97
2022-11-28T00:25:27.759Z,58300.38
2022-11-28T00:27:54.138Z,58300.38
2022-11-28T00:30:20.501Z,58395.59
2022-11-28T00:32:46.895Z,58494.94
2022-11-28T00:35:13.302Z,58679.19
2022-11-28T00:37:39.679Z,58207.22
2022-11-28T00:40:06.986Z,58372.81
2022-11-28T00:42:33.363Z,58300.38
2022-11-28T00:44:59.734Z,58234.13
2022-11-28T00:47:26.135Z,58532.22
2022-11-28T00:49:52.545Z,58314.84
2022-11-28T00:52:19.355Z,58283.81
2022-11-28T00:54:46.017Z,58316.94
2022-11-28T00:57:12.505Z,58345.91
2022-11-28T00:59:39.021Z,58457.69
2022-11-28T01:02:05.530Z,58370.75
2022-11-28T01:04:31.944Z,58314.84
2022-11-28T01:06:58.542Z,58358.34
2022-11-28T01:09:25.258Z,58325.22
2022-11-28T01:11:53.261Z,58362.47
2022-11-28T01:14:24.338Z,58372.81
2022-11-28T01:16:50.692Z,58387.31
2022-11-28T01:19:17.388Z,58360.41
2022-11-28T01:21:44.336Z,58389.38
2022-11-28T01:24:10.917Z,58331.41
2022-11-28T01:26:38.440Z,58594.31
2022-11-28T01:29:04.983Z,58470.13
2022-11-28T01:31:31.498Z,58399.72
2022-11-28T01:33:58.830Z,58300.38
2022-11-28T01:36:26.188Z,58362.47
2022-11-28T01:38:53.000Z,58408.00
2022-11-28T01:41:22.757Z,58343.84
2022-11-28T01:44:00.376Z,58352.13
2022-11-28T01:46:27.379Z,58393.53
2022-11-28T01:48:57.187Z,58410.09
2022-11-28T01:51:23.686Z,58416.28
2022-11-28T01:53:50.202Z,58401.81
2022-11-28T01:56:20.737Z,58339.69
2022-11-28T01:58:50.470Z,58304.50
2022-11-28T02:01:17.336Z,58393.53
2022-11-28T02:03:46.163Z,58432.84
2022-11-28T02:06:15.271Z,58374.88
2022-11-28T02:08:41.694Z,58335.56
2022-11-28T02:11:26.519Z,58376.97
2022-11-28T02:14:34.254Z,58389.38
2022-11-28T02:17:26.599Z,58424.56
2022-11-28T02:20:22.279Z,58383.16
2022-11-28T02:23:10.241Z,58401.81
2022-11-28T02:25:42.688Z,58432.84
2022-11-28T02:28:32.857Z,58372.81
2022-11-28T02:31:24.351Z,58432.84
2022-11-28T02:33:57.504Z,58352.13
2022-11-28T02:36:38.168Z,58383.16
2022-11-28T02:39:12.448Z,58374.88
2022-11-28T02:42:02.757Z,58290.03
2022-11-28T02:44:39.250Z,58389.38
2022-11-28T02:47:10.435Z,58290.03
2022-11-28T02:49:42.744Z,58316.94
2022-11-28T02:52:15.494Z,58337.63
2022-11-28T02:54:42.969Z,58279.66
2022-11-28T02:57:09.686Z,58370.75
2022-11-28T02:59:39.882Z,58341.78
2022-11-28T03:02:14.264Z,58321.06
2022-11-28T03:05:12.837Z,58325.22
2022-11-28T03:07:39.285Z,58300.38
2022-11-28T03:10:18.580Z,58296.22
2022-11-28T03:12:59.952Z,58333.50
2022-11-28T03:16:06.711Z,58358.34
2022-11-28T03:18:40.230Z,58422.50
2022-11-28T03:21:22.710Z,58333.50
2022-11-28T03:23:52.926Z,58294.16
2022-11-28T03:26:28.779Z,58321.06
2022-11-28T03:29:09.480Z,58296.22
2022-11-28T03:31:42.733Z,58316.94
2022-11-28T03:34:12.765Z,58300.38
2022-11-28T03:36:50.076Z,58321.06
2022-11-28T03:39:20.884Z,58296.22
2022-11-28T03:41:55.123Z,58323.13
2022-11-28T03:44:27.729Z,58252.75
2022-11-28T03:46:55.806Z,58261.03
2022-11-28T03:49:27.705Z,58312.78
2022-11-28T03:52:07.068Z,58275.53
2022-11-28T03:54:45.840Z,58287.94
2022-11-28T03:57:23.301Z,58497.03
2022-11-28T03:59:51.792Z,58292.09
2022-11-28T04:02:33.550Z,58298.31
2022-11-28T04:05:15.342Z,58316.94
2022-11-28T04:07:47.724Z,58345.91
2022-11-28T04:10:20.290Z,58283.81
2022-11-28T04:12:54.329Z,58271.41
2022-11-28T04:15:28.981Z,58294.16
2022-11-28T04:18:05.496Z,58283.81
2022-11-28T04:20:35.336Z,58306.59
2022-11-28T04:23:06.740Z,58343.84
2022-11-28T04:25:37.136Z,58263.13
2022-11-28T04:28:07.455Z,58107.88
2022-11-28T04:30:34.557Z,58449.41
2022-11-28T04:33:03.755Z,58271.41
2022-11-28T04:35:33.479Z,58271.41
2022-11-28T04:38:01.467Z,58296.22
2022-11-28T04:40:29.454Z,58292.09
2022-11-28T04:43:00.560Z,58300.38
2022-11-28T04:45:28.460Z,58339.69
2022-11-28T04:47:55.079Z,58279.66
2022-11-28T04:50:23.961Z,58296.22
2022-11-28T04:53:01.567Z,58323.13
2022-11-28T04:55:39.406Z,58314.84
2022-11-28T04:58:13.312Z,58296.22
2022-11-28T05:00:40.573Z,58290.03
2022-11-28T05:03:07.586Z,58323.13
2022-11-28T05:05:46.143Z,58267.25
2022-11-28T05:08:12.935Z,58271.41
2022-11-28T05:10:39.665Z,58312.78
2022-11-28T05:13:06.142Z,58310.72
2022-11-28T05:15:32.537Z,58275.53
2022-11-28T05:17:59.226Z,58234.13
2022-11-28T05:20:26.052Z,58302.44
2022-11-28T05:22:52.484Z,58254.84
2022-11-28T05:25:18.997Z,58172.03
2022-11-28T05:27:45.434Z,58283.81
2022-11-28T05:30:12.630Z,58290.03
2022-11-28T05:32:39.221Z,58287.94
2022-11-28T05:35:05.731Z,58252.75
2022-11-28T05:37:32.439Z,58196.88
2022-11-28T05:39:58.890Z,58267.25
2022-11-28T05:42:26.055Z,58217.56
2022-11-28T05:44:52.679Z,58275.53
2022-11-28T05:47:19.066Z,58258.97
2022-11-28T05:49:47.816Z,58323.13
2022-11-28T05:52:14.259Z,58265.19
2022-11-28T05:54:40.662Z,58244.47
2022-11-28T05:57:07.536Z,58261.03
2022-11-28T05:59:34.089Z,58198.94
2022-11-28T06:02:00.720Z,58196.88
2022-11-28T06:04:27.249Z,58316.94
2022-11-28T06:06:53.664Z,58250.69
2022-11-28T06:09:24.542Z,58248.63
2022-11-28T06:11:52.172Z,58544.63
2022-11-28T06:14:18.570Z,58246.56
2022-11-28T06:16:45.068Z,58256.91
2022-11-28T06:19:12.603Z,58176.19
2022-11-28T06:21:39.403Z,58217.56
2022-11-28T06:24:06.431Z,58250.69
2022-11-28T06:26:32.833Z,58246.56
2022-11-28T06:28:59.235Z,58232.06
2022-11-28T06:31:28.553Z,58238.28
2022-11-28T06:33:55.264Z,58196.88
2022-11-28T06:36:21.763Z,58198.94
2022-11-28T06:38:48.410Z,58459.75
2022-11-28T06:41:16.980Z,58225.84
2022-11-28T06:43:43.665Z,58221.72
2022-11-28T06:46:16.266Z,58424.56
2022-11-28T06:48:43.683Z,58370.75
2022-11-28T06:51:11.371Z,58258.97
2022-11-28T06:53:37.764Z,58244.47
2022-11-28T06:56:06.034Z,58205.16
2022-11-28T06:58:32.854Z,58186.53
2022-11-28T07:01:16.106Z,58300.38
2022-11-28T07:03:43.696Z,58256.91
2022-11-28T07:06:10.878Z,58238.28
2022-11-28T07:08:37.610Z,58405.94
2022-11-28T07:11:15.189Z,58258.97
2022-11-28T07:13:42.227Z,58261.03
2022-11-28T07:16:15.584Z,58223.78
2022-11-28T07:18:42.216Z,58256.91
2022-11-28T07:21:08.918Z,58238.28
2022-11-28T07:23:35.449Z,58242.41
2022-11-28T07:26:02.888Z,58314.84
2022-11-28T07:28:30.190Z,58279.66
2022-11-28T07:31:12.598Z,58256.91
2022-11-28T07:33:43.462Z,58277.59
2022-11-28T07:36:24.574Z,58283.81
2022-11-28T07:38:51.839Z,58290.03
2022-11-28T07:41:22.499Z,58238.28
2022-11-28T07:44:02.932Z,58310.72
2022-11-28T07:46:30.923Z,58248.63
2022-11-28T07:48:57.527Z,58294.16
2022-11-28T07:51:26.690Z,58196.88
2022-11-28T07:53:53.279Z,58269.31
2022-11-28T07:56:22.831Z,58279.66
2022-11-28T07:58:49.603Z,58263.13
2022-11-28T08:01:19.074Z,58267.25
2022-11-28T08:03:46.326Z,58329.34
2022-11-28T08:06:14.546Z,58316.94
2022-11-28T08:08:40.965Z,58263.13
2022-11-28T08:11:08.557Z,58321.06
2022-11-28T08:13:36.462Z,58287.94
2022-11-28T08:16:13.133Z,58304.50
2022-11-28T08:18:39.629Z,58261.03
2022-11-28T08:21:08.460Z,58321.06
2022-11-28T08:23:35.557Z,58298.31
2022-11-28T08:26:02.990Z,58316.94
2022-11-28T08:28:29.592Z,58323.13
2022-11-28T08:30:56.280Z,58366.59
2022-11-28T08:33:26.283Z,58316.94
2022-11-28T08:35:53.052Z,58345.91
2022-11-28T08:38:19.601Z,58273.47
2022-11-28T08:40:46.114Z,58308.66
2022-11-28T08:43:12.535Z,58343.84
2022-11-28T08:45:39.348Z,58294.16
2022-11-28T08:48:06.337Z,58358.34
2022-11-28T08:50:32.735Z,58296.22
2022-11-28T08:53:01.788Z,58370.75
2022-11-28T08:55:39.158Z,58314.84
2022-11-28T08:58:08.417Z,58337.63
2022-11-28T09:00:34.867Z,58325.22
2022-11-28T09:03:01.253Z,58374.88
2022-11-28T09:05:28.811Z,58337.63
2022-11-28T09:07:55.720Z,58362.47
2022-11-28T09:10:22.861Z,58383.16
2022-11-28T09:12:49.231Z,58341.78
2022-11-28T09:15:15.598Z,58372.81
2022-11-28T09:17:41.968Z,58401.81
2022-11-28T09:20:08.680Z,58395.59
2022-11-28T09:22:35.075Z,58408.00
2022-11-28T09:25:01.500Z,58397.66
2022-11-28T09:27:27.976Z,58350.06
2022-11-28T09:29:54.359Z,58343.84
2022-11-28T09:32:20.841Z,58403.88
2022-11-28T09:34:47.332Z,58368.69
2022-11-28T09:37:13.732Z,58416.28
2022-11-28T09:40:04.808Z,58403.88
2022-11-28T09:42:32.423Z,58395.59
2022-11-28T09:45:02.977Z,58358.34
2022-11-28T09:47:30.900Z,58726.81
2022-11-28T09:50:15.306Z,58445.28
2022-11-28T09:53:09.290Z,58416.28
2022-11-28T09:55:35.632Z,58453.56
2022-11-28T09:58:06.573Z,58366.59
2022-11-28T10:00:36.884Z,58577.75
2022-11-28T10:03:18.680Z,58368.69
2022-11-28T10:05:54.291Z,58441.13
2022-11-28T10:08:32.707Z,58439.06
2022-11-28T10:11:05.484Z,58325.22
2022-11-28T10:14:08.258Z,58385.25
2022-11-28T10:17:05.543Z,58374.88
2022-11-28T10:19:53.924Z,58397.66
2022-11-28T10:22:34.087Z,58347.97
2022-11-28T10:25:05.361Z,58358.34
2022-11-28T10:27:35.491Z,58515.66
2022-11-28T10:30:06.503Z,58329.34
2022-11-28T10:32:34.753Z,58374.88
2022-11-28T10:35:20.880Z,58376.97
2022-11-28T10:37:51.037Z,58418.34
2022-11-28T10:40:49.858Z,58426.63
2022-11-28T10:43:37.306Z,58451.47
2022-11-28T10:46:30.156Z,58405.94
2022-11-28T10:49:14.688Z,58445.28
2022-11-28T10:51:47.105Z,58395.59
2022-11-28T10:54:50.585Z,58439.06
2022-11-28T10:57:20.292Z,58434.91
2022-11-28T10:59:59.046Z,58420.44
2022-11-28T11:02:55.402Z,58405.94
2022-11-28T11:05:26.857Z,58416.28
2022-11-28T11:08:05.451Z,58461.84
2022-11-28T11:10:51.641Z,58418.34
2022-11-28T11:13:26.832Z,58447.34
2022-11-28T11:16:00.440Z,58695.75
2022-11-28T11:18:28.449Z,58503.22
2022-11-28T11:21:14.391Z,58461.84
2022-11-28T11:23:40.808Z,58459.75
2022-11-28T11:26:10.882Z,58449.41
2022-11-28T11:28:45.483Z,58523.94
2022-11-28T11:31:22.909Z,58428.72
2022-11-28T11:34:00.950Z,58410.09
2022-11-28T11:36:33.121Z,58422.50
2022-11-28T11:39:11.873Z,58484.59
2022-11-28T11:41:43.634Z,58453.56
2022-11-28T11:44:20.367Z,58488.75
2022-11-28T11:47:13.261Z,58468.03
2022-11-28T11:49:44.152Z,58463.91
2022-11-28T11:52:25.137Z,58437.00
2022-11-28T11:54:54.544Z,58486.66
2022-11-28T11:57:43.725Z,58511.50
2022-11-28T12:00:15.640Z,58486.66
2022-11-28T12:03:05.131Z,58463.91
2022-11-28T12:05:59.313Z,58457.69
2022-11-28T12:08:42.999Z,58497.03
2022-11-28T12:11:22.048Z,58499.09
2022-11-28T12:13:49.186Z,58465.97
2022-11-28T12:16:34.008Z,58455.63
2022-11-28T12:19:10.256Z,58691.59
2022-11-28T12:22:12.095Z,58511.50
2022-11-28T12:25:05.049Z,58492.88
2022-11-28T12:27:39.882Z,58412.16
2022-11-28T12:30:21.252Z,58451.47
2022-11-28T12:32:56.842Z,58463.91
2022-11-28T12:35:40.020Z,58453.56
2022-11-28T12:39:03.642Z,58461.84
2022-11-28T12:41:58.977Z,58453.56
2022-11-28T12:45:00.448Z,58503.22
2022-11-28T12:47:34.644Z,58476.31
2022-11-28T12:50:19.948Z,58501.16
2022-11-28T12:52:46.253Z,58515.66
2022-11-28T12:55:34.299Z,58523.94
2022-11-28T12:58:22.731Z,58523.94
2022-11-28T13:01:32.945Z,58472.19
2022-11-28T13:04:21.166Z,58478.38
2022-11-28T13:07:24.355Z,58453.56
2022-11-28T13:10:02.512Z,58470.13
2022-11-28T13:13:08.393Z,58511.50
2022-11-28T13:15:56.036Z,58515.66
2022-11-28T13:18:54.454Z,58526.00
2022-11-28T13:21:46.885Z,58532.22
2022-11-28T13:24:33.185Z,58530.13
2022-11-28T13:27:33.163Z,58590.19
2022-11-28T13:30:24.951Z,58538.41
2022-11-28T13:33:13.890Z,58503.22
2022-11-28T13:35:42.744Z,58459.75
2022-11-28T13:42:03.536Z,58358.34
2022-11-28T13:44:24.346Z,58453.56
2022-11-28T13:46:51.600Z,58482.53
2022-11-28T13:49:23.997Z,58499.09
2022-11-28T13:52:19.187Z,58486.66
2022-11-28T13:54:53.076Z,58519.78
2022-11-28T13:57:29.415Z,58534.28
2022-11-28T14:00:27.737Z,58544.63
2022-11-28T14:02:59.938Z,58501.16
2022-11-28T14:05:36.158Z,58499.09
2022-11-28T14:08:03.964Z,58482.53
2022-11-28T14:11:07.351Z,58521.88
2022-11-28T14:14:10.972Z,58497.03
2022-11-28T14:16:51.573Z,58532.22
2022-11-28T14:19:55.238Z,58557.06
2022-11-28T14:22:48.767Z,58532.22
2022-11-28T14:25:36.867Z,58486.66
2022-11-28T14:28:16.665Z,58478.38
2022-11-28T14:30:44.839Z,58534.28
2022-11-28T14:33:21.298Z,58490.81
2022-11-28T14:35:50.726Z,58523.94
2022-11-28T14:38:35.383Z,58546.69
2022-11-28T14:41:04.598Z,58552.91
2022-11-28T14:43:37.978Z,58544.63
2022-11-28T14:46:19.141Z,58503.22
2022-11-28T14:48:57.613Z,58557.06
2022-11-28T14:51:49.226Z,58532.22
2022-11-28T14:54:32.371Z,58526.00
2022-11-28T14:57:00.193Z,58505.31
2022-11-28T14:59:45.329Z,58530.13
2022-11-28T15:02:11.730Z,58575.69
2022-11-28T15:05:03.025Z,58561.19
2022-11-28T15:07:36.004Z,58590.19
2022-11-28T15:10:27.665Z,58554.97
2022-11-28T15:13:22.037Z,58569.47
2022-11-28T15:15:49.172Z,58554.97
2022-11-28T15:18:18.012Z,58546.69
2022-11-28T15:20:53.827Z,58515.66
2022-11-28T15:23:30.196Z,58588.09
2022-11-28T15:25:58.190Z,58559.13
2022-11-28T15:28:28.240Z,58561.19
2022-11-28T15:30:56.786Z,58691.59
2022-11-28T15:33:24.388Z,58478.38
2022-11-28T15:36:01.318Z,58668.84
2022-11-28T15:38:29.765Z,58513.59
2022-11-28T15:40:56.666Z,58507.38
2022-11-28T15:43:24.012Z,58554.97
2022-11-28T15:45:54.610Z,58532.22
2022-11-28T15:48:28.935Z,58592.25
2022-11-28T15:50:55.438Z,58528.06
2022-11-28T15:53:21.998Z,58497.03
2022-11-28T15:56:07.020Z,58554.97
2022-11-28T15:58:33.652Z,58490.81
2022-11-28T16:01:19.636Z,58933.81
2022-11-28T16:03:55.315Z,58615.00
2022-11-28T16:06:23.547Z,58501.16
2022-11-28T16:08:54.095Z,58569.47
2022-11-28T16:11:23.168Z,58683.34
2022-11-28T16:13:50.703Z,58573.63
2022-11-28T16:16:21.341Z,58426.63
2022-11-28T16:19:08.384Z,58583.97
2022-11-28T16:21:46.184Z,58590.19
2022-11-28T16:24:38.828Z,58623.28
2022-11-28T16:27:06.051Z,58557.06
2022-11-28T16:29:40.633Z,58573.63
2022-11-28T16:32:26.029Z,58563.25
2022-11-28T16:34:54.161Z,58559.13
2022-11-28T16:37:23.680Z,58623.28
2022-11-28T16:40:20.323Z,58577.75
2022-11-28T16:42:54.419Z,58586.03
2022-11-28T16:45:25.408Z,58511.50
2022-11-28T16:47:52.773Z,58619.16
2022-11-28T16:50:23.143Z,58617.09
2022-11-28T16:52:57.687Z,58606.72
2022-11-28T16:55:27.051Z,58598.44
2022-11-28T16:57:57.169Z,58594.31
2022-11-28T17:00:23.769Z,58569.47
2022-11-28T17:02:53.418Z,58590.19
2022-11-28T17:05:20.304Z,58654.34
2022-11-28T17:07:46.768Z,58577.75
2022-11-28T17:10:13.775Z,58621.22
2022-11-28T17:12:40.522Z,58625.38
2022-11-28T17:15:09.836Z,58610.88
2022-11-28T17:17:36.454Z,58631.56
2022-11-28T17:20:03.580Z,58660.56
2022-11-28T17:22:40.689Z,58668.84
2022-11-28T17:25:13.921Z,58666.78
2022-11-28T17:27:40.370Z,58612.94
2022-11-28T17:30:07.489Z,58639.84
2022-11-28T17:32:33.915Z,58635.72
2022-11-28T17:35:03.845Z,58650.22
2022-11-28T17:37:30.245Z,58542.56
2022-11-28T17:40:15.220Z,58619.16
2022-11-28T17:42:41.659Z,58594.31
2022-11-28T17:45:13.847Z,58712.31
2022-11-28T17:47:40.251Z,58672.97
2022-11-28T17:50:07.250Z,58658.50
2022-11-28T17:52:33.634Z,58699.88
2022-11-28T17:55:06.856Z,58867.56
2022-11-28T17:57:33.961Z,58631.56
2022-11-28T18:00:00.649Z,58658.50
2022-11-28T18:02:27.512Z,58635.72
2022-11-28T18:04:53.956Z,58631.56
2022-11-28T18:07:20.384Z,58621.22
2022-11-28T18:09:47.839Z,58940.03
2022-11-28T18:12:14.247Z,58619.16
2022-11-28T18:14:40.634Z,58619.16
2022-11-28T18:17:07.610Z,58687.47
2022-11-28T18:19:34.584Z,58668.84
2022-11-28T18:22:00.962Z,58631.56
2022-11-28T18:24:27.375Z,58639.84
2022-11-28T18:26:53.764Z,58681.25
2022-11-28T18:29:20.214Z,58658.50
2022-11-28T18:31:46.739Z,58697.81
2022-11-28T18:34:13.125Z,58606.72
2022-11-28T18:36:40.748Z,58660.56
2022-11-28T18:39:09.378Z,58708.16
2022-11-28T18:41:36.015Z,58633.66
2022-11-28T18:44:04.614Z,58708.16
2022-11-28T18:46:32.238Z,58706.09
2022-11-28T18:48:59.296Z,58695.75
2022-11-28T18:51:31.248Z,58693.69
2022-11-28T18:53:57.942Z,58718.53
2022-11-28T18:56:25.440Z,58672.97
2022-11-28T18:58:53.377Z,58747.50
2022-11-28T19:01:22.763Z,58735.09
2022-11-28T19:03:50.919Z,58730.94
2022-11-28T19:06:17.351Z,58716.44
2022-11-28T19:08:43.900Z,58689.53
2022-11-28T19:11:15.342Z,58718.53
2022-11-28T19:13:43.761Z,58683.34
2022-11-28T19:16:14.122Z,58681.25
2022-11-28T19:18:40.699Z,58708.16
2022-11-28T19:21:09.072Z,58745.44
2022-11-28T19:23:35.711Z,58739.22
2022-11-28T19:26:12.439Z,58919.34
2022-11-28T19:28:40.772Z,58720.59
2022-11-28T19:31:21.304Z,58743.38
2022-11-28T19:34:01.353Z,58772.34
2022-11-28T19:36:29.640Z,58735.09
2022-11-28T19:38:56.077Z,58730.94
2022-11-28T19:41:22.648Z,58724.72
2022-11-28T19:43:49.223Z,58809.59
2022-11-28T19:46:15.771Z,58728.88
2022-11-28T19:48:42.636Z,58739.22
2022-11-28T19:51:10.173Z,58797.19
2022-11-28T19:53:37.972Z,58772.34
2022-11-28T19:56:10.360Z,58747.50
2022-11-28T19:58:37.504Z,58768.22
2022-11-28T20:01:09.033Z,58801.31
2022-11-28T20:03:36.555Z,58772.34
2022-11-28T20:06:15.999Z,58693.69
2022-11-28T20:08:42.936Z,58768.22
2022-11-28T20:11:14.845Z,58766.13
2022-11-28T20:13:42.104Z,58819.97
2022-11-28T20:16:09.967Z,58797.19
2022-11-28T20:18:37.917Z,58762.00
2022-11-28T20:21:11.303Z,58770.28
2022-11-28T20:23:42.439Z,58805.47
2022-11-28T20:26:09.385Z,58807.53
2022-11-28T20:28:37.986Z,58836.53
2022-11-28T20:31:06.119Z,58801.31
2022-11-28T20:33:32.816Z,58776.50
2022-11-28T20:36:10.923Z,58861.38
2022-11-28T20:38:37.367Z,58768.22
2022-11-28T20:41:05.689Z,58801.31
2022-11-28T20:43:33.424Z,58844.81
2022-11-28T20:46:07.525Z,58778.56
2022-11-28T20:48:34.586Z,58768.22
2022-11-28T20:51:00.968Z,58788.91
2022-11-28T20:53:27.459Z,58834.44
2022-11-28T20:56:06.901Z,58739.22
2022-11-28T20:58:33.674Z,58681.25
2022-11-28T21:01:00.411Z,58822.03
2022-11-28T21:03:27.295Z,58797.19
2022-11-28T21:05:59.414Z,58745.44
2022-11-28T21:08:30.236Z,58778.56
2022-11-28T21:10:56.708Z,58824.09
2022-11-28T21:13:23.105Z,59074.59
2022-11-28T21:15:49.728Z,58832.38
2022-11-28T21:18:16.571Z,58753.72
2022-11-28T21:20:45.314Z,58627.44
2022-11-28T21:23:13.286Z,58799.25
2022-11-28T21:25:41.200Z,58784.78
2022-11-28T21:28:09.402Z,58822.03
2022-11-28T21:30:44.088Z,59267.16
2022-11-28T21:33:11.551Z,58764.06
2022-11-28T21:35:38.793Z,58834.44
2022-11-28T21:38:05.895Z,59070.47
2022-11-28T21:40:32.784Z,58822.03
2022-11-28T21:42:59.217Z,58751.66
2022-11-28T21:45:25.765Z,58828.25
2022-11-28T21:47:52.397Z,58813.75
2022-11-28T21:50:18.834Z,58805.47
2022-11-28T21:52:45.265Z,58784.78
2022-11-28T21:55:11.696Z,58780.63
2022-11-28T21:57:38.324Z,58805.47
2022-11-28T22:00:06.159Z,58786.84
2022-11-28T22:02:32.739Z,58795.13
2022-11-28T22:04:59.916Z,58846.88
2022-11-28T22:07:26.348Z,58815.81
2022-11-28T22:09:52.767Z,58844.81
2022-11-28T22:12:19.164Z,59128.44
2022-11-28T22:14:46.138Z,58809.59
2022-11-28T22:17:12.798Z,58755.78
2022-11-28T22:19:39.183Z,58805.47
2022-11-28T22:22:05.615Z,58786.84
2022-11-28T22:24:32.069Z,58998.00
2022-11-28T22:26:59.772Z,58739.22
2022-11-28T22:29:26.380Z,58830.31
2022-11-28T22:31:52.795Z,58826.16
2022-11-28T22:34:19.375Z,58743.38
2022-11-28T22:36:45.770Z,59082.88
2022-11-28T22:39:12.203Z,58904.84
2022-11-28T22:41:38.869Z,59190.53
2022-11-28T22:44:05.581Z,59111.88
2022-11-28T22:46:32.422Z,58886.22
2022-11-28T22:49:00.085Z,58855.16
2022-11-28T22:51:27.462Z,58851.00
2022-11-28T22:53:55.024Z,58809.59
2022-11-28T22:56:21.653Z,58985.59
2022-11-28T22:58:48.635Z,58973.16
2022-11-28T23:01:17.787Z,58764.06
2022-11-28T23:03:44.821Z,58867.56
2022-11-28T23:06:18.379Z,58902.78
2022-11-28T23:08:45.594Z,58861.38
2022-11-28T23:11:17.483Z,58882.06
2022-11-28T23:13:44.534Z,58809.59
2022-11-28T23:16:19.036Z,58848.94
2022-11-28T23:18:47.206Z,58865.50
2022-11-28T23:21:14.119Z,58869.66
2022-11-28T23:23:41.058Z,58875.84
2022-11-28T23:26:13.849Z,59149.13
2022-11-28T23:28:40.851Z,58842.72
2022-11-28T23:31:10.215Z,58813.75
2022-11-28T23:33:38.006Z,58859.28
2022-11-28T23:36:12.877Z,58838.59
2022-11-28T23:38:39.270Z,58865.50
2022-11-28T23:41:05.651Z,58894.50
2022-11-28T23:43:32.427Z,59205.03
2022-11-28T23:45:58.889Z,59111.88
2022-11-28T23:48:26.137Z,58869.66
2022-11-28T23:50:52.533Z,58778.56
2022-11-28T23:53:18.938Z,58840.66
2022-11-28T23:55:45.327Z,58793.06
2022-11-28T23:58:11.789Z,58846.88
